Time;durP1;ratioP1;P1;durP2;ratioP2;P2;SDS_P1;SDS_P2;PMS_P1;PMS_P2;Temp;Humidity;BMP_temperature;BMP_pressure;BME280_temperature;BME280_humidity;BME280_pressure;Samples;Min_cycle;Max_cycle;Signal;HPM_P1;HPM_P2
2020/12/04 00:01:43;;;;;;;45.03;19.45;;;;;;;0.00;89.04;101426.53;1741259;81;21197;-71
2020/12/04 00:04:11;;;;;;;54.75;23.20;;;;;;;0.00;89.03;101423.91;1755541;81;21746;-70
2020/12/04 00:06:39;;;;;;;56.00;24.33;;;;;;;0.00;89.00;101426.53;1629200;81;10000124;-71
2020/12/04 00:09:06;;;;;;;53.08;22.27;;;;;;;-0.01;89.01;101427.00;1751240;81;21053;-71
2020/12/04 00:11:35;;;;;;;45.08;19.57;;;;;;;-0.02;89.02;101426.68;1760697;79;21211;-71
2020/12/04 00:14:02;;;;;;;34.40;15.45;;;;;;;-0.02;89.01;101430.63;1749376;81;21204;-71
2020/12/04 00:16:29;;;;;;;41.95;19.90;;;;;;;0.00;89.04;101426.53;1743932;81;21179;-72
2020/12/04 00:18:57;;;;;;;53.00;22.85;;;;;;;-0.02;89.05;101426.68;1758409;81;21201;-71
2020/12/04 00:21:24;;;;;;;49.75;22.32;;;;;;;-0.01;89.07;101430.13;1750741;81;22078;-70
2020/12/04 00:23:52;;;;;;;41.73;17.62;;;;;;;0.00;89.08;101430.47;1759496;81;21053;-72
2020/12/04 00:26:19;;;;;;;42.78;18.70;;;;;;;0.01;89.09;101428.16;1752590;81;21179;-73
2020/12/04 00:28:48;;;;;;;42.13;20.17;;;;;;;-0.01;89.08;101427.00;1753172;81;21293;-72
2020/12/04 00:31:16;;;;;;;47.85;21.52;;;;;;;-0.03;89.11;101430.80;1751344;81;21171;-73
2020/12/04 06:01:01;;;;;;;26.07;12.65;;;;;;;0.85;90.31;101378.09;1755769;81;21108;-71
2020/12/04 06:09:35;;;;;;;28.62;15.50;;;;;;;0.90;90.23;101389.44;1752357;81;21204;-71
2020/12/04 06:12:13;;;;;;;36.67;17.43;;;;;;;0.89;90.18;101386.48;1632468;81;10000295;-71
2020/12/04 06:14:40;;;;;;;34.25;17.27;;;;;;;0.89;90.20;101395.20;1744735;81;21202;-71
2020/12/04 06:17:11;;;;;;;32.45;15.03;;;;;;;0.91;90.19;101401.58;1766463;79;21640;-72
2020/12/04 06:19:40;;;;;;;31.87;16.15;;;;;;;0.94;90.21;101406.00;1752489;80;21677;-71
2020/12/04 06:22:15;;;;;;;33.65;16.10;;;;;;;0.99;90.18;101407.28;1751440;81;21218;-71
2020/12/04 06:24:59;;;;;;;35.50;17.82;;;;;;;1.02;90.12;101407.78;1766587;79;21184;-71
2020/12/04 06:27:45;;;;;;;27.73;13.98;;;;;;;0.99;90.05;101412.08;1806785;77;21345;-71
2020/12/04 06:30:18;;;;;;;34.38;17.40;;;;;;;1.00;90.08;101411.58;1804146;77;21198;-71
2020/12/04 06:32:51;;;;;;;;;;;;;;;1.00;90.03;101412.89;1803069;77;21914;-71
2020/12/04 06:35:41;;;;;;;30.95;14.60;;;;;;;1.00;90.04;101408.44;1797090;79;20601;-71
2020/12/04 06:38:40;;;;;;;33.67;16.30;;;;;;;1.00;90.01;101407.13;1790190;79;21119;-71
2020/12/04 06:41:24;;;;;;;37.38;18.90;;;;;;;0.99;90.01;101413.86;1790264;77;21125;-71
2020/12/04 06:44:05;;;;;;;26.42;13.88;;;;;;;1.02;90.01;101413.05;1791467;79;21131;-70
2020/12/04 06:46:47;;;;;;;28.98;14.13;;;;;;;1.08;90.00;101416.78;1800582;77;21690;-71
2020/12/04 06:49:37;;;;;;;31.68;16.32;;;;;;;1.10;89.97;101416.94;1800119;77;21167;-71
2020/12/04 06:52:18;;;;;;;34.15;17.07;;;;;;;1.10;89.95;101416.94;1802941;77;21124;-72
2020/12/04 06:54:49;;;;;;;37.53;17.40;;;;;;;1.12;89.90;101414.15;1805822;77;21378;-71
2020/12/04 06:57:18;;;;;;;34.05;17.10;;;;;;;1.15;89.86;101428.24;1752900;80;21601;-73
2020/12/04 06:59:46;;;;;;;36.00;17.25;;;;;;;1.17;89.85;101433.66;1750412;80;21643;-72
2020/12/04 07:02:18;;;;;;;38.45;17.70;;;;;;;1.19;89.81;101426.11;1750547;81;21187;-71
2020/12/04 07:04:50;;;;;;;30.08;15.00;;;;;;;1.21;89.79;101434.63;1759949;79;21187;-71
2020/12/04 07:07:28;;;;;;;38.67;18.80;;;;;;;1.25;89.73;101434.59;1759073;79;21381;-71
2020/12/04 07:10:04;;;;;;;40.12;20.30;;;;;;;1.24;89.69;101427.71;1687092;77;10000203;-71
2020/12/04 07:12:31;;;;;;;40.73;20.60;;;;;;;1.24;89.65;101434.29;1795882;79;21037;-71
2020/12/04 07:14:59;;;;;;;41.05;20.20;;;;;;;1.26;89.64;101432.31;1815473;77;21136;-71
2020/12/04 07:17:29;;;;;;;39.65;19.12;;;;;;;1.30;89.62;101428.33;1798901;77;21364;-71
2020/12/04 07:19:59;;;;;;;35.55;18.00;;;;;;;1.29;89.57;101426.70;1807534;77;21210;-71
2020/12/04 07:22:27;;;;;;;33.30;16.75;;;;;;;1.28;89.50;101427.17;1748106;80;21198;-71
2020/12/04 07:24:56;;;;;;;38.08;17.62;;;;;;;1.25;89.50;101434.59;1775941;79;21195;-71
2020/12/04 07:27:28;;;;;;;38.48;18.75;;;;;;;1.23;89.44;101429.53;1775091;79;21195;-72
2020/12/04 07:29:56;;;;;;;32.78;16.82;;;;;;;1.23;89.42;101438.73;1805221;77;21367;-71
2020/12/04 07:32:24;;;;;;;41.40;20.75;;;;;;;1.25;89.43;101434.59;1800175;77;21178;-71
2020/12/04 07:34:52;;;;;;;39.18;18.15;;;;;;;1.26;89.44;101437.58;1791042;79;21542;-72
2020/12/04 07:37:19;;;;;;;44.10;20.48;;;;;;;1.29;89.45;101445.94;1789772;79;21178;-72
2020/12/04 07:39:46;;;;;;;41.33;19.27;;;;;;;1.33;89.43;101438.02;1790495;79;21665;-73
2020/12/04 07:42:14;;;;;;;43.95;20.60;;;;;;;1.39;89.37;101449.66;1785028;79;22393;-71
2020/12/04 07:44:52;;;;;;;42.30;20.68;;;;;;;1.41;89.31;101447.66;1789349;79;21246;-73
2020/12/04 07:47:20;;;;;;;40.98;20.05;;;;;;;1.41;89.25;101443.71;1784515;77;21224;-71
2020/12/04 07:49:54;;;;;;;42.27;19.87;;;;;;;1.44;89.19;101447.81;1802848;77;21734;-71
2020/12/04 07:52:24;;;;;;;41.20;19.45;;;;;;;1.44;89.14;101442.05;1793488;79;21156;-71
2020/12/04 07:55:09;;;;;;;35.40;16.87;;;;;;;1.51;89.17;101437.72;1793373;77;23316;-72
2020/12/04 07:57:45;;;;;;;44.00;20.35;;;;;;;1.55;89.08;101436.89;1741230;79;21174;-70
2020/12/04 08:00:14;;;;;;;46.28;21.45;;;;;;;1.52;88.97;101442.51;1776858;79;21159;-71
2020/12/04 08:02:43;;;;;;;43.90;21.10;;;;;;;1.53;88.93;101438.37;1752636;79;21186;-72
2020/12/04 08:05:22;;;;;;;43.80;21.97;;;;;;;1.56;88.97;101443.28;1758115;81;21176;-72
2020/12/04 08:07:52;;;;;;;44.98;20.75;;;;;;;1.63;88.99;101454.75;1764299;81;21172;-72
2020/12/04 08:10:20;;;;;;;47.20;22.77;;;;;;;1.71;88.99;101459.16;1623820;81;9999866;-71
2020/12/04 08:12:49;;;;;;;39.60;20.75;;;;;;;1.76;88.86;101463.88;1749552;81;21741;-72
2020/12/04 08:15:19;;;;;;;49.33;22.30;;;;;;;1.78;88.73;101457.95;1753513;81;21416;-73
2020/12/04 08:17:46;;;;;;;46.95;22.02;;;;;;;1.77;88.62;101458.42;1758860;81;21207;-71
2020/12/04 08:20:16;;;;;;;47.00;21.75;;;;;;;1.83;88.63;101462.18;1756060;81;21194;-72
2020/12/04 08:22:52;;;;;;;45.05;20.52;;;;;;;1.89;88.56;101450.94;1756219;79;21755;-72
2020/12/04 08:25:27;;;;;;;47.23;22.58;;;;;;;1.94;88.43;101459.14;1749865;81;21256;-72
2020/12/04 08:27:55;;;;;;;52.33;23.22;;;;;;;1.93;88.25;101471.97;1768156;81;21329;-72
2020/12/04 08:30:27;;;;;;;49.88;23.25;;;;;;;1.97;88.24;101470.61;1748496;79;21210;-72
2020/12/04 08:35:43;;;;;;;44.37;18.63;;;;;;;2.07;88.03;101464.63;1831190;77;22282;-72
2020/12/04 08:38:16;;;;;;;51.30;24.27;;;;;;;2.03;87.93;101468.59;1831577;77;21169;-72
2020/12/04 08:40:48;;;;;;;53.15;24.65;;;;;;;2.01;87.81;101461.38;1797039;77;22273;-72
2020/12/04 08:43:24;;;;;;;54.58;24.12;;;;;;;2.03;87.81;101469.91;1804911;77;22280;-74
2020/12/04 08:45:55;;;;;;;49.30;21.75;;;;;;;2.06;87.79;101459.01;1818827;77;21209;-73
2020/12/04 08:48:32;;;;;;;46.50;21.87;;;;;;;2.11;87.80;101455.35;1835177;77;21037;-72
2020/12/04 08:51:04;;;;;;;41.88;20.15;;;;;;;2.18;87.71;101452.01;1832947;77;21164;-72
2020/12/04 08:53:33;;;;;;;40.83;21.02;;;;;;;2.28;87.66;101456.52;1817463;77;21406;-70
2020/12/04 08:56:04;;;;;;;42.80;21.57;;;;;;;2.35;87.51;101460.06;1807068;78;21214;-73
2020/12/04 08:58:32;;;;;;;42.08;21.15;;;;;;;2.43;87.43;101454.69;1807222;78;21179;-73
2020/12/04 09:01:00;;;;;;;41.55;19.95;;;;;;;2.46;87.28;101456.97;1815765;78;21783;-73
2020/12/04 09:03:27;;;;;;;34.75;17.80;;;;;;;2.50;87.07;101453.47;1820349;78;21155;-72
2020/12/04 09:05:55;;;;;;;37.20;19.37;;;;;;;2.52;86.81;101453.61;1819272;78;21813;-71
2020/12/04 09:08:23;;;;;;;33.40;16.73;;;;;;;2.54;86.64;101453.45;1827164;78;22333;-72
2020/12/04 09:10:50;;;;;;;35.67;18.83;;;;;;;2.54;86.43;101462.17;1693868;78;9999698;-72
2020/12/04 09:13:18;;;;;;;30.23;15.72;;;;;;;2.51;86.26;101456.45;1775130;79;21025;-73
2020/12/04 09:15:47;;;;;;;26.82;14.93;;;;;;;2.50;86.06;101460.91;1818312;78;21206;-72
2020/12/04 09:18:17;;;;;;;30.85;16.55;;;;;;;2.49;85.88;101461.88;1822562;77;21172;-73
2020/12/04 09:20:44;;;;;;;30.75;17.07;;;;;;;2.49;85.71;101455.80;1810395;77;21184;-71
2020/12/04 09:23:12;;;;;;;31.27;16.85;;;;;;;2.47;85.46;101452.51;1802435;78;21240;-73
2020/12/04 09:25:39;;;;;;;34.08;17.92;;;;;;;2.44;85.34;101451.08;1814109;77;21157;-72
2020/12/04 09:28:08;;;;;;;33.05;16.32;;;;;;;2.43;85.19;101453.87;1811116;77;21239;-74
2020/12/04 09:30:36;;;;;;;37.38;19.48;;;;;;;2.44;85.08;101455.53;1812954;78;21207;-72
2020/12/04 09:33:03;;;;;;;39.08;18.60;;;;;;;2.45;85.05;101455.84;1814250;78;21190;-73
2020/12/04 09:35:30;;;;;;;39.80;19.12;;;;;;;2.47;84.99;101457.31;1804798;78;21159;-72
2020/12/04 09:37:58;;;;;;;36.63;19.00;;;;;;;2.50;84.93;101457.42;1842075;76;21185;-72
2020/12/04 09:40:26;;;;;;;38.40;19.60;;;;;;;2.54;84.85;101453.45;1847960;77;21403;-72
2020/12/04 09:42:53;;;;;;;38.05;20.43;;;;;;;2.57;84.75;101453.90;1845776;77;21577;-73
2020/12/04 09:45:22;;;;;;;44.27;22.65;;;;;;;2.61;84.68;101453.53;1810920;78;21587;-73
2020/12/04 09:47:49;;;;;;;36.60;19.17;;;;;;;2.64;84.61;101447.39;1824898;78;21183;-72
2020/12/04 09:50:18;;;;;;;37.10;18.57;;;;;;;2.70;84.56;101442.71;1819894;78;21199;-71
2020/12/04 09:52:46;;;;;;;38.98;20.92;;;;;;;2.71;84.36;101442.20;1804670;77;22587;-72
2020/12/04 09:55:14;;;;;;;49.33;22.40;;;;;;;2.66;84.21;101452.47;1791567;78;21184;-71
2020/12/04 09:57:45;;;;;;;48.68;22.93;;;;;;;2.65;84.25;101436.34;1810764;78;21153;-71
2020/12/04 10:00:16;;;;;;;46.10;21.20;;;;;;;2.66;84.22;101440.60;1812138;78;21184;-71
2020/12/04 10:02:44;;;;;;;52.15;24.98;;;;;;;2.64;84.19;101442.12;1819691;78;21178;-72
2020/12/04 10:05:11;;;;;;;45.08;21.62;;;;;;;2.61;84.15;101442.98;1808650;78;21381;-71
2020/12/04 10:07:40;;;;;;;55.83;24.25;;;;;;;2.63;84.17;101447.56;1814869;78;21279;-72
2020/12/04 10:10:08;;;;;;;54.98;24.77;;;;;;;2.56;84.12;101443.01;1829558;78;21171;-72
2020/12/04 10:12:36;;;;;;;56.50;25.77;;;;;;;2.45;84.12;101440.84;1685700;77;9999675;-72
2020/12/04 10:15:03;;;;;;;54.80;23.40;;;;;;;2.35;84.21;101436.34;1793993;78;21203;-70
2020/12/04 10:17:31;;;;;;;46.28;21.48;;;;;;;2.33;84.31;101432.55;1818455;78;21195;-71
2020/12/04 10:19:59;;;;;;;53.00;25.65;;;;;;;2.29;84.36;101443.14;1818771;77;21183;-72
2020/12/04 10:22:27;;;;;;;56.68;26.05;;;;;;;2.20;84.52;101448.67;1825016;77;21204;-72
2020/12/04 10:24:55;;;;;;;47.67;22.55;;;;;;;2.14;84.66;101448.91;1803896;78;21540;-72
2020/12/04 10:27:25;;;;;;;59.35;26.35;;;;;;;2.14;84.83;101440.16;1837271;77;21122;-70
2020/12/04 10:29:54;;;;;;;55.88;25.95;;;;;;;2.15;84.91;101442.63;1840089;77;21211;-71
2020/12/04 10:32:21;;;;;;;60.88;26.73;;;;;;;2.13;85.00;101443.30;1803698;78;21631;-72
2020/12/04 10:34:49;;;;;;;54.48;25.90;;;;;;;2.15;85.14;101441.31;1800637;79;21155;-72
2020/12/04 10:37:17;;;;;;;49.65;24.32;;;;;;;2.24;85.25;101440.75;1822202;78;22689;-72
2020/12/04 10:39:44;;;;;;;51.70;24.70;;;;;;;2.34;85.24;101436.84;1810831;78;21868;-72
2020/12/04 10:42:12;;;;;;;57.05;27.02;;;;;;;2.36;85.10;101436.65;1814443;78;21211;-72
2020/12/04 10:44:39;;;;;;;47.03;23.85;;;;;;;2.33;85.09;101440.96;1815877;77;21200;-72
2020/12/04 10:47:14;;;;;;;45.73;22.90;;;;;;;2.33;85.16;101434.38;1817924;78;21671;-73
2020/12/04 10:49:47;;;;;;;49.75;25.00;;;;;;;2.31;85.09;101436.39;1819875;78;21378;-72
2020/12/04 10:52:19;;;;;;;41.13;21.35;;;;;;;2.25;85.10;101438.42;1808982;78;21184;-72
2020/12/04 10:54:49;;;;;;;48.20;22.65;;;;;;;2.25;85.16;101430.52;1815086;78;21814;-72
2020/12/04 10:57:17;;;;;;;53.42;27.00;;;;;;;2.19;85.14;101429.91;1807066;78;21188;-72
2020/12/04 10:59:44;;;;;;;47.83;24.60;;;;;;;2.17;85.16;101433.22;1819211;78;21143;-72
2020/12/04 11:02:22;;;;;;;46.88;24.45;;;;;;;2.20;85.17;101435.49;1808598;77;21256;-72
2020/12/04 11:07:28;;;;;;;46.92;23.45;;;;;;;2.18;85.18;101437.00;1815741;78;21156;-71
2020/12/04 11:09:58;;;;;;;46.02;24.10;;;;;;;2.20;85.24;101432.86;1817889;77;21516;-71
2020/12/04 11:12:25;;;;;;;44.57;23.03;;;;;;;2.24;85.27;101425.75;1653703;79;10000517;-70
2020/12/04 11:15:12;;;;;;;48.40;24.93;;;;;;;2.31;85.23;101424.52;1871321;75;23419;-71
2020/12/04 11:17:40;;;;;;;50.65;26.80;;;;;;;2.25;85.15;101428.69;1846563;76;21148;-71
2020/12/04 11:20:08;;;;;;;44.63;22.55;;;;;;;2.20;85.15;101429.72;1830385;76;23953;-71
2020/12/04 11:22:36;;;;;;;44.27;22.58;;;;;;;2.21;85.20;101436.65;1775764;79;21632;-71
2020/12/04 11:25:04;;;;;;;41.08;21.35;;;;;;;2.26;85.27;101432.14;1784071;79;21152;-71
2020/12/04 11:27:32;;;;;;;39.38;21.70;;;;;;;2.27;85.28;101429.34;1791572;79;21706;-71
2020/12/04 11:29:59;;;;;;;45.33;22.22;;;;;;;2.22;85.30;101420.33;1783610;79;21285;-70
2020/12/04 11:32:27;;;;;;;44.65;22.75;;;;;;;2.16;85.35;101427.64;1782970;78;22387;-71
2020/12/04 11:34:55;;;;;;;44.65;22.48;;;;;;;2.06;85.41;101422.12;1789098;78;21168;-70
2020/12/04 11:37:22;;;;;;;38.67;20.75;;;;;;;2.00;85.55;101425.47;1795477;79;21172;-71
2020/12/04 11:39:52;;;;;;;48.28;25.00;;;;;;;1.93;85.65;101423.73;1765371;80;21663;-70
2020/12/04 11:42:19;;;;;;;38.23;20.37;;;;;;;1.88;85.84;101416.37;1825321;78;21152;-71
2020/12/04 11:44:47;;;;;;;37.55;20.95;;;;;;;1.85;85.97;101414.91;1790765;79;21678;-71
2020/12/04 11:47:15;;;;;;;43.95;22.35;;;;;;;1.77;86.07;101411.02;1792497;79;21215;-71
2020/12/04 11:49:42;;;;;;;40.73;21.70;;;;;;;1.72;86.22;101412.06;1786308;78;21183;-71
2020/12/04 11:52:09;;;;;;;48.15;25.60;;;;;;;1.71;86.38;101422.28;1792598;79;21223;-71
2020/12/04 11:54:37;;;;;;;39.73;21.10;;;;;;;1.70;86.50;101423.77;1791081;79;22253;-71
2020/12/04 11:57:06;;;;;;;38.42;19.52;;;;;;;1.72;86.66;101424.42;1792366;79;21818;-71
2020/12/04 11:59:33;;;;;;;43.85;22.55;;;;;;;1.72;86.78;101425.23;1794365;79;21179;-71
2020/12/04 12:02:01;;;;;;;42.80;23.05;;;;;;;1.71;86.87;101426.71;1791975;79;21631;-71
2020/12/04 12:04:29;;;;;;;42.15;21.85;;;;;;;1.68;86.91;101434.96;1784039;79;21116;-71
2020/12/04 12:06:56;;;;;;;43.98;22.07;;;;;;;1.66;87.01;101433.02;1786957;79;21167;-72
2020/12/04 12:09:25;;;;;;;47.95;25.43;;;;;;;1.63;87.11;101428.41;1781565;79;21378;-72
2020/12/04 12:11:52;;;;;;;46.20;23.65;;;;;;;1.61;87.19;101427.80;1773633;79;21156;-71
2020/12/04 12:14:20;;;;;;;36.20;19.50;;;;;;;1.59;87.25;101431.09;1770984;79;21647;-70
2020/12/04 12:16:47;;;;;;;35.80;18.98;;;;;;;1.57;87.35;101430.94;1763038;81;21159;-70
2020/12/04 12:19:15;;;;;;;35.08;19.30;;;;;;;1.53;87.45;101422.58;1744344;81;21155;-70
2020/12/04 12:21:47;;;;;;;37.38;19.98;;;;;;;1.51;87.54;101422.42;1738447;81;21184;-71
2020/12/04 12:24:15;;;;;;;35.05;19.50;;;;;;;1.50;87.62;101424.23;1748844;80;21182;-70
2020/12/04 12:26:43;;;;;;;52.65;27.85;;;;;;;1.49;87.71;101425.24;1781973;80;21155;-70
2020/12/04 12:29:11;;;;;;;39.53;21.23;;;;;;;1.48;87.73;101426.72;1725352;80;21225;-71
2020/12/04 12:31:40;;;;;;;45.20;24.05;;;;;;;1.43;87.74;101422.49;1799788;78;21159;-72
2020/12/04 12:34:07;;;;;;;47.95;24.72;;;;;;;1.37;87.78;101427.95;1751604;80;21337;-71
2020/12/04 12:36:35;;;;;;;52.78;27.10;;;;;;;1.34;87.86;101428.30;1773513;80;21162;-71
2020/12/04 12:39:03;;;;;;;53.80;27.45;;;;;;;1.29;87.91;101430.15;1753381;81;21073;-71
2020/12/04 12:41:30;;;;;;;46.10;23.40;;;;;;;1.22;87.95;101434.95;1786038;78;21199;-70
2020/12/04 12:43:57;;;;;;;52.67;28.33;;;;;;;1.17;87.99;101428.90;1630074;80;10000380;-69
2020/12/04 12:46:25;;;;;;;48.98;25.37;;;;;;;1.14;88.05;101430.56;1775010;80;21073;-70
2020/12/04 12:48:52;;;;;;;50.75;24.98;;;;;;;1.10;88.10;101430.09;1739059;81;21191;-70
2020/12/04 12:51:21;;;;;;;49.95;26.25;;;;;;;1.04;88.12;101434.72;1767472;79;21159;-71
2020/12/04 12:53:49;;;;;;;50.23;24.43;;;;;;;1.00;88.18;101432.12;1747160;81;21379;-70
2020/12/04 12:56:16;;;;;;;56.35;27.70;;;;;;;0.96;88.26;101445.30;1744663;80;21400;-70
2020/12/04 12:58:43;;;;;;;57.13;27.70;;;;;;;0.87;88.29;101437.11;1789226;78;21508;-70
2020/12/04 13:01:13;;;;;;;57.40;27.93;;;;;;;0.81;88.33;101441.23;1745151;80;21160;-71
2020/12/04 13:03:41;;;;;;;60.90;29.77;;;;;;;0.81;88.43;101441.23;1779640;79;21186;-70
2020/12/04 13:06:09;;;;;;;61.05;29.90;;;;;;;0.80;88.54;101440.11;1774775;79;21159;-71
2020/12/04 13:08:36;;;;;;;59.75;29.45;;;;;;;0.78;88.60;101443.39;1779046;80;21282;-71
2020/12/04 13:11:04;;;;;;;70.30;33.88;;;;;;;0.78;88.66;101441.58;1764481;80;21627;-71
2020/12/04 13:13:32;;;;;;;51.88;24.32;;;;;;;0.77;88.70;101444.39;1746973;81;21701;-69
2020/12/04 13:15:59;;;;;;;63.45;28.85;;;;;;;0.78;88.76;101451.28;1748306;80;21192;-70
2020/12/04 13:18:27;;;;;;;60.40;26.93;;;;;;;0.75;88.79;101452.44;1780145;80;21183;-71
2020/12/04 13:20:56;;;;;;;69.75;31.12;;;;;;;0.74;88.77;101452.62;1754921;81;21542;-71
2020/12/04 13:23:38;;;;;;;59.75;26.62;;;;;;;0.66;88.81;101454.80;1779057;78;21187;-72
2020/12/04 13:26:37;;;;;;;64.62;30.95;;;;;;;0.58;88.90;101466.14;1772204;80;21139;-72
2020/12/04 13:28:39;;;;;;;73.87;33.02;;;;;;;0.53;88.97;101461.05;1742479;81;21226;-71
2020/12/04 13:31:07;;;;;;;76.05;33.40;;;;;;;0.50;89.08;101470.12;1780470;80;21160;-71
2020/12/04 13:33:35;;;;;;;75.83;33.95;;;;;;;0.44;89.17;101474.72;1778290;80;22105;-71
2020/12/04 13:36:02;;;;;;;82.75;35.55;;;;;;;0.42;89.24;101477.50;1779329;78;21171;-73
2020/12/04 13:38:30;;;;;;;77.78;32.93;;;;;;;0.42;89.30;101483.26;1749312;81;21208;-72
2020/12/04 13:40:58;;;;;;;69.00;29.67;;;;;;;0.43;89.40;101473.91;1780478;80;21167;-71
2020/12/04 13:43:25;;;;;;;80.77;34.67;;;;;;;0.45;89.42;101486.87;1655785;80;10000537;-71
2020/12/04 13:45:52;;;;;;;67.17;30.23;;;;;;;0.44;89.44;101487.87;1750186;80;21287;-71
2020/12/04 13:48:20;;;;;;;64.97;29.05;;;;;;;0.43;89.45;101483.11;1779099;80;21194;-72
2020/12/04 13:50:48;;;;;;;68.07;27.70;;;;;;;0.41;89.45;101490.83;1749828;81;21203;-72
2020/12/04 13:53:26;;;;;;;83.58;35.48;;;;;;;0.40;89.50;101490.02;1779000;80;21520;-70
2020/12/04 13:56:09;;;;;;;85.53;36.30;;;;;;;0.44;89.52;101484.73;1812961;77;23318;-73
2020/12/04 13:58:38;;;;;;;85.35;36.35;;;;;;;0.39;89.57;101483.09;1772658;78;21200;-73
2020/12/04 14:01:06;;;;;;;83.12;35.95;;;;;;;0.41;89.59;101475.06;1779604;80;21368;-72
2020/12/04 14:03:34;;;;;;;84.65;35.50;;;;;;;0.44;89.56;101485.23;1779487;79;21180;-74
2020/12/04 14:06:01;;;;;;;85.83;36.20;;;;;;;0.42;89.57;101488.52;1780112;79;21796;-72
2020/12/04 14:08:30;;;;;;;77.40;32.33;;;;;;;0.40;89.57;101491.82;1740512;81;21172;-73
2020/12/04 14:10:59;;;;;;;82.08;36.23;;;;;;;0.40;89.55;101493.14;1774102;79;21838;-73
2020/12/04 14:13:26;;;;;;;84.67;35.33;;;;;;;0.37;89.55;101486.40;1736878;81;21267;-72
2020/12/04 14:15:54;;;;;;;80.70;33.20;;;;;;;0.37;89.57;101481.64;1765430;79;21199;-73
2020/12/04 14:18:21;;;;;;;87.65;36.95;;;;;;;0.35;89.60;101480.98;1777936;80;21113;-72
2020/12/04 14:20:49;;;;;;;72.40;32.42;;;;;;;0.36;89.63;101478.67;1762296;79;21183;-72
2020/12/04 14:23:16;;;;;;;71.62;31.68;;;;;;;0.38;89.64;101480.65;1757117;79;21213;-73
2020/12/04 14:25:45;;;;;;;75.10;32.58;;;;;;;0.38;89.62;101481.96;1768692;80;21396;-72
2020/12/04 14:28:13;;;;;;;72.78;31.23;;;;;;;0.37;89.66;101481.64;1763502;79;21174;-73
2020/12/04 14:30:40;;;;;;;84.87;36.15;;;;;;;0.40;89.63;101489.20;1769807;79;21048;-73
2020/12/04 14:33:08;;;;;;;63.80;27.93;;;;;;;0.42;89.62;101492.45;1767183;81;21462;-71
2020/12/04 14:35:36;;;;;;;64.35;29.00;;;;;;;0.43;89.59;101495.44;1757745;80;21193;-72
2020/12/04 14:38:04;;;;;;;81.22;35.23;;;;;;;0.43;89.59;101499.38;1742046;81;21658;-73
2020/12/04 14:40:32;;;;;;;73.60;31.87;;;;;;;0.43;89.54;101496.75;1712631;79;21221;-72
2020/12/04 14:43:05;;;;;;;62.40;28.55;;;;;;;0.40;89.50;101494.45;1755023;79;21181;-74
2020/12/04 14:45:33;;;;;;;75.87;34.10;;;;;;;0.38;89.51;101499.86;1639640;80;9999789;-73
2020/12/04 14:48:01;;;;;;;62.45;26.10;;;;;;;0.38;89.53;101493.28;1754327;81;21411;-73
2020/12/04 14:50:31;;;;;;;64.47;29.80;;;;;;;0.40;89.53;101497.08;1761564;80;21228;-72
2020/12/04 14:52:58;;;;;;;71.30;33.78;;;;;;;0.40;89.49;101492.64;1754770;81;21185;-72
2020/12/04 14:55:25;;;;;;;59.60;26.87;;;;;;;0.40;89.48;101492.64;1754438;79;21233;-72
2020/12/04 14:57:54;;;;;;;75.20;32.85;;;;;;;0.41;89.49;101481.13;1755542;81;21164;-73
2020/12/04 15:00:29;;;;;;;60.67;29.00;;;;;;;0.41;89.44;101492.14;1758497;79;21386;-71
2020/12/04 15:02:59;;;;;;;54.13;26.55;;;;;;;0.44;89.41;101503.63;1752219;81;21652;-73
2020/12/04 15:05:28;;;;;;;61.28;31.15;;;;;;;0.44;89.37;101500.52;1755885;80;21615;-72
2020/12/04 15:07:55;;;;;;;62.48;29.55;;;;;;;0.43;89.34;101504.63;1750924;80;21189;-72
2020/12/04 15:10:25;;;;;;;63.05;29.70;;;;;;;0.43;89.31;101509.39;1737658;79;21180;-72
2020/12/04 15:13:04;;;;;;;49.10;24.47;;;;;;;0.49;89.25;101508.37;1769436;79;22736;-73
2020/12/04 15:15:32;;;;;;;55.98;26.35;;;;;;;0.42;89.19;101513.48;1716130;82;21198;-74
2020/12/04 15:18:01;;;;;;;54.15;25.12;;;;;;;0.40;89.19;101514.16;1723442;82;21205;-74
2020/12/04 15:20:30;;;;;;;60.90;30.00;;;;;;;0.36;89.08;101516.77;1722044;82;21243;-74
2020/12/04 15:22:58;;;;;;;62.83;31.65;;;;;;;0.35;89.10;101509.88;1740521;82;21242;-74
2020/12/04 15:25:27;;;;;;;53.52;25.32;;;;;;;0.35;89.10;101509.39;1735285;82;21172;-74
2020/12/04 15:27:55;;;;;;;62.43;31.50;;;;;;;0.36;89.11;101512.36;1779703;80;21123;-73
2020/12/04 15:30:22;;;;;;;59.60;28.70;;;;;;;0.35;89.05;101502.00;1781149;80;21682;-73
2020/12/04 15:32:49;;;;;;;56.80;27.48;;;;;;;0.36;89.04;101504.95;1770333;80;21167;-73
2020/12/04 15:35:17;;;;;;;58.52;29.25;;;;;;;0.35;89.04;101513.83;1764876;79;21170;-75
2020/12/04 15:37:44;;;;;;;56.18;28.73;;;;;;;0.34;89.02;101513.51;1778647;80;21182;-73
2020/12/04 15:40:13;;;;;;;55.33;27.05;;;;;;;0.32;89.00;101520.72;1781860;79;21170;-73
2020/12/04 15:42:41;;;;;;;54.77;28.05;;;;;;;0.32;88.99;101518.09;1765309;79;21372;-74
2020/12/04 15:45:10;;;;;;;55.55;28.27;;;;;;;0.33;88.99;101522.36;1775412;80;21837;-72
2020/12/04 15:47:39;;;;;;;48.90;24.12;;;;;;;0.31;88.96;101519.91;1779437;80;21186;-75
2020/12/04 15:50:07;;;;;;;54.25;27.22;;;;;;;0.30;88.98;101523.53;1754362;80;21227;-74
2020/12/04 15:52:38;;;;;;;57.98;28.12;;;;;;;0.31;88.96;101523.03;1774229;80;21182;-75
2020/12/04 15:55:05;;;;;;;62.23;31.82;;;;;;;0.32;88.93;101522.04;1776732;79;21646;-75
2020/12/04 15:57:35;;;;;;;52.93;27.48;;;;;;;0.32;88.94;101530.73;1779396;79;21607;-74
2020/12/04 16:00:04;;;;;;;52.08;26.27;;;;;;;0.32;88.94;101523.35;1775627;79;21164;-75
2020/12/04 16:02:32;;;;;;;44.30;22.58;;;;;;;0.33;88.97;101524.52;1775460;79;21394;-74
2020/12/04 16:05:01;;;;;;;45.25;23.98;;;;;;;0.36;88.93;101516.30;1772599;79;21149;-75
2020/12/04 16:07:33;;;;;;;48.78;24.55;;;;;;;0.35;88.85;101517.27;1774700;79;21264;-75
2020/12/04 16:10:01;;;;;;;47.10;24.67;;;;;;;0.33;88.85;101521.05;1775500;79;21156;-75
2020/12/04 16:12:29;;;;;;;53.33;27.98;;;;;;;0.34;88.80;101522.70;1724512;82;21163;-75
2020/12/04 16:14:56;;;;;;;49.95;26.57;;;;;;;0.31;88.70;101533.55;1768796;80;21148;-75
2020/12/04 16:17:25;;;;;;;56.30;28.35;;;;;;;0.28;88.70;101534.69;1716137;82;21185;-75
2020/12/04 16:19:52;;;;;;;49.95;25.50;;;;;;;0.28;88.72;101533.88;1728180;82;21289;-76
2020/12/04 16:22:20;;;;;;;50.50;26.57;;;;;;;0.28;88.71;101539.95;1736193;81;21211;-74
2020/12/04 16:24:48;;;;;;;47.95;24.25;;;;;;;0.30;88.73;101537.17;1781675;79;21722;-75
2020/12/04 16:27:15;;;;;;;46.68;25.37;;;;;;;0.32;88.71;101543.06;1770633;79;21202;-75
2020/12/04 16:29:43;;;;;;;47.38;24.85;;;;;;;0.32;88.66;101539.94;1778744;80;21159;-75
2020/12/04 16:32:10;;;;;;;43.70;23.45;;;;;;;0.31;88.62;101536.17;1767676;80;21640;-77
2020/12/04 16:34:38;;;;;;;52.27;25.37;;;;;;;0.32;88.64;101536.00;1779385;80;21206;-75
2020/12/04 16:37:09;;;;;;;44.85;22.17;;;;;;;0.31;88.59;101530.92;1773028;80;21186;-75
2020/12/04 16:39:37;;;;;;;42.65;22.25;;;;;;;0.31;88.60;101538.30;1770605;80;21329;-76
2020/12/04 16:42:04;;;;;;;54.33;26.30;;;;;;;0.31;88.61;101538.80;1769081;80;21131;-76
2020/12/04 16:44:35;;;;;;;48.65;24.95;;;;;;;0.32;88.58;101540.44;1758260;80;21363;-74
2020/12/04 16:47:03;;;;;;;49.43;25.47;;;;;;;0.32;88.56;101539.13;1633831;79;10000389;-73
2020/12/04 16:49:30;;;;;;;38.28;20.65;;;;;;;0.30;88.43;101540.61;1765868;80;21211;-73
2020/12/04 16:51:58;;;;;;;50.40;24.50;;;;;;;0.31;88.56;101540.93;1769984;80;21195;-76
2020/12/04 16:54:26;;;;;;;54.08;27.58;;;;;;;0.29;88.51;101537.64;1756159;81;21193;-74
2020/12/04 16:56:56;;;;;;;45.40;24.10;;;;;;;0.29;88.48;101542.89;1766715;79;21175;-77
2020/12/04 16:59:24;;;;;;;46.42;24.35;;;;;;;0.29;88.43;101541.58;1776246;80;21131;-75
2020/12/04 17:01:52;;;;;;;39.73;20.88;;;;;;;0.22;88.34;101544.05;1779580;80;21388;-74
2020/12/04 17:04:21;;;;;;;47.67;23.85;;;;;;;0.19;88.37;101544.37;1777839;80;21174;-76
2020/12/04 17:06:48;;;;;;;47.67;23.98;;;;;;;0.19;88.38;101548.31;1776052;79;21658;-75